Portada
METAR-TAF:

METAR-TAF

Aeroports :

Bejaïa, Algèria

latitud: 36-43N, longitud: 005-04E, altitud: 2 m

Observació

L'informe es va fer fa 20 minuts, a les 04:00 UTC
Vent 4 kt del Nord/Nord-Est
Temperatura 22°C
Humitat 88%
Pressió 1016 hPa
Visibilitat 10 km o més
Núvols disperses a una alçada de 2000 ft
Núvols disperses a una alçada de 9000 ft

METAR: DAAE 180400Z 02004KT 9999 SCT020 SCT090 22/20 Q1016

Hora: 05:20 (04:20 UTC)

Pronòstic

L'informe es va fer fa 5 hores i 20 minuts, a les 23:00 UTC
Pronòstic vàlid del 18 a les 00 UTC al 18 a les 24 UTC
Vent 8 kt del Est
Visibilitat 10 km o més
Escasses núvols a una alçada de 2000 ft, Cumulus congestus.
Núvols disperses a una alçada de 3000 ft
Temporalment
l' 18 a les 00 UTC al 18 a les 06 UTC
Visibilitat: 3000 m
Núvols disperses a una alçada de 2000 ft, Cumulonimbus.
tempesta, pluja

TAF: DAAE 172300Z 1800/1824 08008KT 9999 FEW020TCU SCT030 TEMPO 1800/1806 3000 -TSRA SCT020CB

Observacions i pronòstics meteorològics de més de 4000 aeroports (METAR i TAF).

Les estacions disponibles són els punts grocs i vermells al mapa.

Posi el ratolí al punt desitjat per veure el nom de l'estació.

Feu clic per veure les observacions i els pronòstics meteorològics.

Per canviar el mapa: feu clic els botons verds amb una creu de color negre per apropar; al botó verd amb un guió per allunyar la imatge; o en les fletxes verdes per a mapes adjacents.


METAR-TAF: